createdAt,value
2023-05-12T01:26:59.199Z,2.10
2023-05-12T01:30:03.422Z,2.10
2023-05-12T01:33:09.320Z,2.40
2023-05-12T01:36:10.871Z,2.25
2023-05-12T01:39:12.675Z,2.30
2023-05-12T01:42:14.489Z,2.40
2023-05-12T01:45:15.998Z,2.40
2023-05-12T01:48:17.876Z,2.40
2023-05-12T01:51:19.874Z,2.20
2023-05-12T01:54:21.851Z,2.30
2023-05-12T01:57:23.293Z,2.20
2023-05-12T02:00:27.674Z,2.25
2023-05-12T02:03:31.717Z,2.20
2023-05-12T02:06:33.451Z,2.20
2023-05-12T02:09:35.151Z,2.20
2023-05-12T02:12:37.379Z,2.10
2023-05-12T02:15:38.893Z,2.20
2023-05-12T02:18:40.515Z,2.15
2023-05-12T02:21:42.171Z,2.15
2023-05-12T02:24:43.688Z,2.28
2023-05-12T02:27:45.256Z,2.10
2023-05-12T02:30:49.293Z,2.13
2023-05-12T02:33:51.584Z,2.47
2023-05-12T02:36:54.086Z,2.47
2023-05-12T02:39:55.658Z,2.35
2023-05-12T02:42:58.385Z,2.20
2023-05-12T02:46:00.114Z,2.40
2023-05-12T02:49:02.375Z,2.30
2023-05-12T02:52:04.175Z,2.30
2023-05-12T02:55:05.942Z,2.33
2023-05-12T02:58:07.532Z,2.33
2023-05-12T03:01:11.311Z,2.53
2023-05-12T03:04:14.487Z,2.30
2023-05-12T03:07:16.141Z,2.70
2023-05-12T03:10:18.881Z,2.20
2023-05-12T03:13:20.655Z,2.10
2023-05-12T03:16:22.284Z,2.35
2023-05-12T03:19:24.195Z,2.00
2023-05-12T03:22:26.041Z,2.10
2023-05-12T03:25:27.718Z,2.30
2023-05-12T03:28:29.266Z,2.15
2023-05-12T03:31:30.840Z,2.20
2023-05-12T03:34:32.422Z,2.20
2023-05-12T03:37:34.483Z,2.30
2023-05-12T03:40:36.689Z,2.33
2023-05-12T03:43:38.248Z,2.10
2023-05-12T03:46:39.928Z,1.95
2023-05-12T03:49:41.484Z,2.30
2023-05-12T03:52:43.054Z,1.90
2023-05-12T03:55:44.561Z,1.98
2023-05-12T03:58:49.039Z,2.05
2023-05-12T04:01:53.177Z,1.92
2023-05-12T04:04:54.847Z,2.05
2023-05-12T04:07:56.409Z,1.95
2023-05-12T04:10:59.248Z,2.22
2023-05-12T04:14:00.764Z,2.00
2023-05-12T04:17:02.344Z,1.90
2023-05-12T04:20:04.223Z,2.17
2023-05-12T04:23:06.371Z,1.98
2023-05-12T04:26:07.861Z,1.85
2023-05-12T04:29:09.403Z,1.92
2023-05-12T04:32:11.315Z,2.10
2023-05-12T04:35:12.992Z,1.90
2023-05-12T04:38:14.692Z,2.20
2023-05-12T04:41:16.207Z,1.80
2023-05-12T04:44:17.756Z,1.90
2023-05-12T04:47:19.716Z,2.22
2023-05-12T04:50:21.239Z,1.90
2023-05-12T04:53:22.868Z,1.92
2023-05-12T06:17:12.529Z,12.55
2023-05-12T06:20:14.275Z,13.98
2023-05-12T06:23:15.857Z,13.25
2023-05-12T06:26:17.348Z,14.63
2023-05-12T06:29:19.691Z,11.40
2023-05-12T06:32:21.196Z,10.07
2023-05-12T06:35:22.705Z,9.13
2023-05-12T06:38:24.248Z,8.20
2023-05-12T06:41:25.860Z,8.32
2023-05-12T06:44:27.549Z,9.00
2023-05-12T06:47:29.151Z,8.80
2023-05-12T06:50:32.206Z,8.82
2023-05-12T06:53:37.412Z,8.63
2023-05-12T06:56:38.879Z,8.90
2023-05-12T06:59:40.336Z,8.15
2023-05-12T07:02:41.906Z,7.78
2023-05-12T07:05:43.402Z,6.53
2023-05-12T07:08:44.871Z,6.50
2023-05-12T07:11:46.748Z,6.18
2023-05-12T07:14:48.187Z,5.93
2023-05-12T07:17:49.937Z,5.45
2023-05-12T07:20:51.490Z,5.20
2023-05-12T07:23:53.018Z,5.15
2023-05-12T07:26:54.447Z,5.30
2023-05-12T07:29:55.939Z,5.15
2023-05-12T07:32:57.850Z,4.80
2023-05-12T07:35:59.502Z,5.22
2023-05-12T07:39:01.108Z,4.93
2023-05-12T07:42:02.555Z,5.28
2023-05-12T07:45:04.235Z,4.97
2023-05-12T07:48:05.928Z,5.05
2023-05-12T07:51:07.916Z,4.82
2023-05-12T07:54:09.707Z,4.85
2023-05-12T07:57:11.214Z,4.88
2023-05-12T08:00:13.476Z,4.60
2023-05-12T08:03:16.322Z,5.43
2023-05-12T08:06:18.461Z,4.90
2023-05-12T08:09:20.716Z,4.53
2023-05-12T08:12:22.200Z,4.78
2023-05-12T08:15:23.958Z,3.83
2023-05-12T08:18:27.392Z,4.13
2023-05-12T08:21:29.288Z,4.22
2023-05-12T08:24:30.846Z,4.28
2023-05-12T08:27:32.451Z,4.10
2023-05-12T08:30:33.965Z,4.30
2023-05-12T08:33:36.136Z,4.40
2023-05-12T08:36:38.912Z,3.90
2023-05-12T08:39:40.832Z,4.00
2023-05-12T08:42:42.250Z,4.00
2023-05-12T08:45:44.213Z,4.18
2023-05-12T08:48:47.441Z,4.25
2023-05-12T08:51:57.672Z,4.30
2023-05-12T08:55:00.960Z,4.07
2023-05-12T08:58:03.486Z,4.10
2023-05-12T09:01:06.288Z,4.07
2023-05-12T09:04:07.874Z,4.90
2023-05-12T09:07:10.977Z,4.25
2023-05-12T09:10:29.846Z,6.20
2023-05-12T09:13:57.419Z,6.80
2023-05-12T09:17:03.317Z,5.82
2023-05-12T09:20:08.756Z,5.18
2023-05-12T09:23:20.272Z,4.70
2023-05-12T09:26:22.812Z,4.85
2023-05-12T09:29:31.673Z,4.90
2023-05-12T09:32:35.845Z,4.77
2023-05-12T09:35:46.542Z,4.28
2023-05-12T09:39:04.503Z,4.80
2023-05-12T09:42:11.458Z,4.75
2023-05-12T09:45:16.068Z,4.90
2023-05-12T09:48:17.645Z,4.70
2023-05-12T09:51:19.144Z,5.32
2023-05-12T09:54:28.270Z,5.65
2023-05-12T09:57:29.970Z,5.60
2023-05-12T10:00:43.453Z,5.28
2023-05-12T10:03:55.438Z,5.22
2023-05-12T10:06:58.371Z,5.88
2023-05-12T10:10:04.672Z,6.47
2023-05-12T10:13:06.725Z,6.32
2023-05-12T10:16:09.268Z,6.03
2023-05-12T10:19:11.719Z,6.20
2023-05-12T10:22:15.857Z,6.20
2023-05-12T10:25:18.105Z,5.40
2023-05-12T10:28:20.368Z,5.78
2023-05-12T10:31:23.367Z,5.50
2023-05-12T10:34:30.891Z,6.60
2023-05-12T10:37:35.346Z,6.20
2023-05-12T10:40:37.795Z,7.10
2023-05-12T10:43:45.244Z,6.25
2023-05-12T10:46:57.882Z,6.63
2023-05-12T10:49:59.619Z,6.07
2023-05-12T10:53:01.394Z,6.30
2023-05-12T10:56:06.827Z,6.65
2023-05-12T10:59:19.029Z,5.78
2023-05-12T11:02:29.916Z,5.47
2023-05-12T11:05:35.440Z,5.55
2023-05-12T11:08:37.816Z,5.20
2023-05-12T11:11:40.319Z,5.70
2023-05-12T11:14:43.962Z,5.10
2023-05-12T17:46:31.146Z,4.10
2023-05-12T17:49:32.797Z,4.20
2023-05-12T17:52:34.249Z,4.18
2023-05-12T17:55:36.069Z,5.20
2023-05-12T17:58:37.592Z,4.93
2023-05-12T18:01:39.609Z,5.00
2023-05-12T18:04:41.232Z,4.78
2023-05-12T18:07:42.734Z,4.63
2023-05-12T18:10:44.717Z,4.60
2023-05-12T18:13:46.345Z,4.40
2023-05-12T18:16:48.617Z,4.60
2023-05-12T18:19:50.452Z,4.00
2023-05-12T18:22:51.958Z,4.20
2023-05-12T18:25:53.450Z,3.90
2023-05-12T18:28:55.031Z,4.05
2023-05-12T18:31:56.585Z,4.10
2023-05-12T18:34:58.241Z,3.97
2023-05-12T18:37:59.707Z,4.13
2023-05-12T18:41:01.330Z,3.85
2023-05-12T18:44:02.869Z,4.20
2023-05-12T18:47:04.650Z,4.60
2023-05-12T18:50:10.758Z,4.22
2023-05-12T18:53:12.269Z,4.22
2023-05-12T18:56:13.936Z,4.13
2023-05-12T18:59:15.413Z,3.90
2023-05-12T19:02:17.380Z,3.95
2023-05-12T19:05:20.064Z,3.95
2023-05-12T19:08:21.708Z,4.05
2023-05-12T19:11:23.319Z,3.97
2023-05-12T19:14:24.831Z,4.43
2023-05-12T19:17:26.644Z,4.07
2023-05-12T19:20:28.989Z,4.30
2023-05-12T19:23:31.148Z,4.00
2023-05-12T19:26:32.691Z,4.18
2023-05-12T19:29:34.154Z,3.97
2023-05-12T19:32:35.734Z,3.85
2023-05-12T19:35:37.322Z,4.00
2023-05-12T19:38:43.344Z,3.65
2023-05-12T19:41:45.049Z,4.38
2023-05-12T19:44:46.583Z,3.70
2023-05-12T19:47:48.486Z,3.97
2023-05-12T19:50:50.271Z,3.63
2023-05-12T19:53:51.798Z,3.63
2023-05-12T19:56:53.301Z,4.03
2023-05-12T19:59:54.896Z,4.05
2023-05-12T20:02:56.411Z,4.20
2023-05-12T20:05:58.846Z,4.32
2023-05-12T20:09:03.314Z,3.90
2023-05-12T20:12:07.796Z,4.20
2023-05-12T20:15:09.937Z,3.95
2023-05-12T20:18:14.297Z,3.90
2023-05-12T20:21:16.849Z,3.67
2023-05-12T20:24:18.572Z,4.30
2023-05-12T20:27:20.183Z,4.18
2023-05-12T20:30:21.709Z,4.15
2023-05-12T20:33:23.213Z,3.88
2023-05-12T20:36:24.759Z,4.03
2023-05-12T20:39:26.763Z,3.75
2023-05-12T20:42:28.392Z,3.97
2023-05-12T20:45:29.847Z,3.90
2023-05-12T20:48:31.428Z,3.85
2023-05-12T20:51:33.337Z,3.78
2023-05-12T20:54:34.935Z,3.75
2023-05-12T20:57:37.611Z,4.45
2023-05-12T21:00:39.404Z,4.07
2023-05-12T21:03:41.998Z,4.35
2023-05-12T21:06:43.534Z,3.72
2023-05-12T21:09:45.618Z,4.00
2023-05-12T21:12:47.099Z,3.88
2023-05-12T21:15:48.636Z,3.90
2023-05-12T21:18:50.275Z,3.90
2023-05-12T21:21:51.875Z,4.40
2023-05-12T21:24:53.361Z,4.00
2023-05-12T21:27:54.943Z,4.20
2023-05-12T21:30:56.645Z,4.03
2023-05-12T21:33:58.129Z,4.10
2023-05-12T21:37:00.265Z,4.20
2023-05-12T21:40:01.997Z,4.13
2023-05-12T21:43:03.659Z,4.15
2023-05-12T21:46:05.617Z,4.40
2023-05-12T21:49:07.138Z,4.07
2023-05-12T21:52:08.939Z,4.05
2023-05-12T21:55:12.559Z,4.07
2023-05-12T21:58:14.010Z,4.25
2023-05-12T22:01:15.585Z,4.60
2023-05-12T22:04:17.404Z,4.45
2023-05-12T22:07:18.905Z,4.68
2023-05-12T22:10:20.930Z,4.40
2023-05-12T22:13:22.579Z,4.80
2023-05-12T22:16:31.130Z,4.45
2023-05-12T22:19:36.373Z,4.20
2023-05-12T22:22:38.227Z,4.38
2023-05-12T22:25:39.713Z,4.90
2023-05-12T22:28:41.181Z,4.60
2023-05-12T22:31:42.825Z,4.82
2023-05-12T22:34:44.527Z,4.40
2023-05-12T22:37:46.113Z,4.20
2023-05-12T22:40:47.621Z,4.00
2023-05-12T22:43:49.094Z,4.35
2023-05-12T22:46:50.641Z,4.15
2023-05-12T22:49:52.321Z,4.35
2023-05-12T22:52:57.187Z,4.25
2023-05-12T22:55:58.695Z,4.50
2023-05-12T22:59:00.502Z,4.18
2023-05-12T23:02:02.082Z,4.00
2023-05-12T23:05:04.203Z,4.10
2023-05-12T23:08:05.857Z,4.03
2023-05-12T23:11:09.437Z,3.70
2023-05-12T23:14:11.401Z,4.25
2023-05-12T23:17:12.906Z,4.20
2023-05-12T23:20:14.428Z,3.90
2023-05-12T23:23:16.038Z,4.50
2023-05-12T23:26:17.505Z,3.70
2023-05-12T23:29:18.968Z,3.83
2023-05-12T23:32:20.689Z,4.10
2023-05-12T23:35:22.486Z,4.28
2023-05-12T23:38:24.055Z,3.83
2023-05-12T23:41:25.967Z,3.53
2023-05-12T23:44:27.885Z,3.65
2023-05-12T23:47:29.435Z,3.85
2023-05-12T23:50:30.954Z,3.70
2023-05-12T23:53:32.579Z,3.90
2023-05-12T23:56:34.798Z,4.40
2023-05-12T23:59:36.362Z,3.50
